F.r. Bigelow — WDB8153 — position and weather

sailwx.info

Track history (hours):
 
Tides and Currents Weather Stations Pressure Air Temp Water Temp Dewpoint Dewpoint Depression Visibility Wind Speed Wind Dir Waves Ship Positions

F.r. Bigelow

More information available from US FCC via Universal Licensing System and Coast Guard Vessel Documentation Center.

Last reported at 2014-Sep-20 19:33 UTC. Time now 2014-Sep-20 20:01 UTC.
Position N 29°59' W 090°24'.

Length 46 m; draft 2.7 m.

Type: Tow > 200 m length. MMSI: 366953890.

Date/timePositionNaut miles runAvg speedWind from/ knotsBaromVisibWave heightAir tempDewpointWater temp
2014-Sep-20 19:33N 29°59' W 090°24'4 4.3
2014-Sep-20 18:33N 30°01' W 090°28'3 2.9
2014-Sep-20 17:33N 30°03' W 090°31'0 0.2
2014-Sep-20 16:33N 30°03' W 090°31'0 0.0
2014-Sep-20 15:33N 30°03' W 090°31'0 0.0
2014-Sep-20 14:33N 30°03' W 090°31'0 0.0
2014-Sep-20 13:33N 30°03' W 090°31'1 1.4
2014-Sep-20 12:33N 30°03' W 090°33'4 4.4
2014-Sep-20 11:33N 30°02' W 090°38'4 3.9
2014-Sep-20 10:33N 30°02' W 090°42'6 5.2
2014-Sep-20 09:27N 29°60' W 090°48'7 3.3
2014-Sep-20 07:16N 30°05' W 090°54'4 4.4
2014-Sep-20 06:27N 30°08' W 090°57'3 2.4
2014-Sep-20 05:08N 30°08' W 091°00'9 0.5
2014-Sep-19 10:30N 30°04' W 090°52'3 2.7
2014-Sep-19 09:24N 30°01' W 090°50'11 3.5
2014-Sep-19 06:21N 30°02' W 090°38'4 4.5
2014-Sep-19 05:33N 30°03' W 090°34'3 2.7
2014-Sep-19 04:33N 30°03' W 090°31'0 0.0
2014-Sep-19 03:33N 30°03' W 090°31'0 0.0
2014-Sep-19 02:31N 30°03' W 090°31'0 0.0
2014-Sep-19 01:32N 30°03' W 090°31'0 0.0
2014-Sep-19 00:32N 30°03' W 090°31'0 0.0
2014-Sep-18 23:24N 30°03' W 090°31'0 0.0
2014-Sep-18 22:28N 30°03' W 090°31'0 0.0
2014-Sep-18 21:31N 30°03' W 090°31'0 0.0
2014-Sep-18 20:31N 30°03' W 090°31'25 2.4
2014-Sep-18 10:25N 29°57' W 090°03'12 0.3
2014-Sep-17 00:07N 29°58' W 090°17'3 5.9
2014-Sep-16 23:33N 29°56' W 090°20'6 5.7
2014-Sep-16 22:33N 29°60' W 090°25'7 0.4
2014-Sep-16 05:28N 29°58' W 090°17'6 6.2
2014-Sep-16 04:33N 29°57' W 090°23'6 6.0
2014-Sep-16 03:33N 30°00' W 090°28'3 3.1
2014-Sep-16 02:33N 30°03' W 090°30'0 0.1
2014-Sep-16 01:33N 30°03' W 090°30'0 0.0
2014-Sep-16 00:33N 30°03' W 090°30'2 2.1
2014-Sep-15 23:33N 30°03' W 090°32'2 1.5
2014-Sep-15 22:11N 30°03' W 090°30'0 0.1
2014-Sep-15 21:09N 30°03' W 090°30'0 0.7
2014-Sep-15 20:33N 30°03' W 090°30'  
2014-Sep-13 05:09N 30°05' W 090°54'2 3.8
2014-Sep-13 04:32N 30°04' W 090°52'0 0.1
2014-Sep-13 02:30N 30°04' W 090°52'0 0.1
2014-Sep-13 01:32N 30°04' W 090°52'0 0.0
2014-Sep-12 22:32N 30°04' W 090°52'0 0.0
2014-Sep-12 21:33N 30°04' W 090°52'6 0.6
2014-Sep-12 12:33N 30°01' W 090°46'4 4.3
2014-Sep-12 11:33N 30°02' W 090°41'4 3.9
2014-Sep-12 10:33N 30°02' W 090°37'4 4.1
2014-Sep-12 09:33N 30°03' W 090°32'0 0.2
2014-Sep-12 08:33N 30°03' W 090°32'0 0.0
2014-Sep-12 07:33N 30°03' W 090°32'0 0.1
2014-Sep-12 06:33N 30°03' W 090°32'0 0.1
2014-Sep-12 05:33N 30°03' W 090°32'0 0.0
2014-Sep-12 04:33N 30°03' W 090°32'0 0.5
2014-Sep-12 03:33N 30°03' W 090°32'0 0.3
2014-Sep-12 02:33N 30°03' W 090°32'2 2.4
2014-Sep-12 01:33N 30°03' W 090°29'4 3.9
2014-Sep-12 00:33N 29°60' W 090°27'4 4.1
2014-Sep-11 23:33N 29°57' W 090°23'5 4.0
2014-Sep-11 22:20N 29°58' W 090°18'0 0.0
2014-Sep-11 06:33N 29°58' W 090°18'1 1.2
2014-Sep-11 05:29N 29°57' W 090°19'3 2.8
2014-Sep-11 04:30N 29°56' W 090°22'4 4.1
2014-Sep-11 03:33N 29°59' W 090°25'4 3.8
2014-Sep-11 02:33N 30°01' W 090°28'2 2.1
2014-Sep-11 01:33N 30°03' W 090°30'0 0.0
2014-Sep-11 00:33N 30°03' W 090°30'0 0.0
2014-Sep-10 23:33N 30°03' W 090°30'0 0.0
2014-Sep-10 22:33N 30°03' W 090°30'0 0.0
2014-Sep-10 21:33N 30°03' W 090°30'0 0.0
2014-Sep-10 20:33N 30°03' W 090°30'  
Track history (hours):
 
Tides and Currents Weather Stations Pressure Air Temp Water Temp Dewpoint Dewpoint Depression Visibility Wind Speed Wind Dir Waves Ship Positions

F.r. Bigelow

More information available from US FCC via Universal Licensing System and Coast Guard Vessel Documentation Center.

Last reported at 2014-Sep-20 19:33 UTC. Time now 2014-Sep-20 20:01 UTC.
Position N 29°59' W 090°24'.

Length 46 m; draft 2.7 m.

Type: Tow > 200 m length. MMSI: 366953890.

Date/timePositionNaut miles runAvg speedWind from/ knotsBaromVisibWave heightAir tempDewpointWater temp
2014-Sep-20 19:33N 29°59' W 090°24'4 4.3
2014-Sep-20 18:33N 30°01' W 090°28'3 2.9
2014-Sep-20 17:33N 30°03' W 090°31'0 0.2
2014-Sep-20 16:33N 30°03' W 090°31'0 0.0
2014-Sep-20 15:33N 30°03' W 090°31'0 0.0
2014-Sep-20 14:33N 30°03' W 090°31'0 0.0
2014-Sep-20 13:33N 30°03' W 090°31'1 1.4
2014-Sep-20 12:33N 30°03' W 090°33'4 4.4
2014-Sep-20 11:33N 30°02' W 090°38'4 3.9
2014-Sep-20 10:33N 30°02' W 090°42'6 5.2
2014-Sep-20 09:27N 29°60' W 090°48'7 3.3
2014-Sep-20 07:16N 30°05' W 090°54'4 4.4
2014-Sep-20 06:27N 30°08' W 090°57'3 2.4
2014-Sep-20 05:08N 30°08' W 091°00'9 0.5
2014-Sep-19 10:30N 30°04' W 090°52'3 2.7
2014-Sep-19 09:24N 30°01' W 090°50'11 3.5
2014-Sep-19 06:21N 30°02' W 090°38'4 4.5
2014-Sep-19 05:33N 30°03' W 090°34'3 2.7
2014-Sep-19 04:33N 30°03' W 090°31'0 0.0
2014-Sep-19 03:33N 30°03' W 090°31'0 0.0
2014-Sep-19 02:31N 30°03' W 090°31'0 0.0
2014-Sep-19 01:32N 30°03' W 090°31'0 0.0
2014-Sep-19 00:32N 30°03' W 090°31'0 0.0
2014-Sep-18 23:24N 30°03' W 090°31'0 0.0
2014-Sep-18 22:28N 30°03' W 090°31'0 0.0
2014-Sep-18 21:31N 30°03' W 090°31'0 0.0
2014-Sep-18 20:31N 30°03' W 090°31'25 2.4
2014-Sep-18 10:25N 29°57' W 090°03'12 0.3
2014-Sep-17 00:07N 29°58' W 090°17'3 5.9
2014-Sep-16 23:33N 29°56' W 090°20'6 5.7
2014-Sep-16 22:33N 29°60' W 090°25'7 0.4
2014-Sep-16 05:28N 29°58' W 090°17'6 6.2
2014-Sep-16 04:33N 29°57' W 090°23'6 6.0
2014-Sep-16 03:33N 30°00' W 090°28'3 3.1
2014-Sep-16 02:33N 30°03' W 090°30'0 0.1
2014-Sep-16 01:33N 30°03' W 090°30'0 0.0
2014-Sep-16 00:33N 30°03' W 090°30'2 2.1
2014-Sep-15 23:33N 30°03' W 090°32'2 1.5
2014-Sep-15 22:11N 30°03' W 090°30'0 0.1
2014-Sep-15 21:09N 30°03' W 090°30'0 0.7
2014-Sep-15 20:33N 30°03' W 090°30'  
2014-Sep-13 05:09N 30°05' W 090°54'2 3.8
2014-Sep-13 04:32N 30°04' W 090°52'0 0.1
2014-Sep-13 02:30N 30°04' W 090°52'0 0.1
2014-Sep-13 01:32N 30°04' W 090°52'0 0.0
2014-Sep-12 22:32N 30°04' W 090°52'0 0.0
2014-Sep-12 21:33N 30°04' W 090°52'6 0.6
2014-Sep-12 12:33N 30°01' W 090°46'4 4.3
2014-Sep-12 11:33N 30°02' W 090°41'4 3.9
2014-Sep-12 10:33N 30°02' W 090°37'4 4.1
2014-Sep-12 09:33N 30°03' W 090°32'0 0.2
2014-Sep-12 08:33N 30°03' W 090°32'0 0.0
2014-Sep-12 07:33N 30°03' W 090°32'0 0.1
2014-Sep-12 06:33N 30°03' W 090°32'0 0.1
2014-Sep-12 05:33N 30°03' W 090°32'0 0.0
2014-Sep-12 04:33N 30°03' W 090°32'0 0.5
2014-Sep-12 03:33N 30°03' W 090°32'0 0.3
2014-Sep-12 02:33N 30°03' W 090°32'2 2.4
2014-Sep-12 01:33N 30°03' W 090°29'4 3.9
2014-Sep-12 00:33N 29°60' W 090°27'4 4.1
2014-Sep-11 23:33N 29°57' W 090°23'5 4.0
2014-Sep-11 22:20N 29°58' W 090°18'0 0.0
2014-Sep-11 06:33N 29°58' W 090°18'1 1.2
2014-Sep-11 05:29N 29°57' W 090°19'3 2.8
2014-Sep-11 04:30N 29°56' W 090°22'4 4.1
2014-Sep-11 03:33N 29°59' W 090°25'4 3.8
2014-Sep-11 02:33N 30°01' W 090°28'2 2.1
2014-Sep-11 01:33N 30°03' W 090°30'0 0.0
2014-Sep-11 00:33N 30°03' W 090°30'0 0.0
2014-Sep-10 23:33N 30°03' W 090°30'0 0.0
2014-Sep-10 22:33N 30°03' W 090°30'0 0.0
2014-Sep-10 21:33N 30°03' W 090°30'0 0.0
2014-Sep-10 20:33N 30°03' W 090°30'  

Dump ship's entire track history